createdAt,value
2023-08-07T00:00:04.022Z,97129.09
2023-08-07T00:02:30.411Z,97122.69
2023-08-07T00:04:56.774Z,97136.72
2023-08-07T00:07:23.179Z,97129.88
2023-08-07T00:09:49.596Z,97136.34
2023-08-07T00:12:16.038Z,97134.09
2023-08-07T00:14:42.427Z,97128.78
2023-08-07T00:17:08.853Z,97126.84
2023-08-07T00:19:35.504Z,97129.50
2023-08-07T00:22:01.873Z,97133.34
2023-08-07T00:24:28.245Z,97128.72
2023-08-07T00:26:54.822Z,97134.06
2023-08-07T00:29:21.391Z,97131.09
2023-08-07T00:31:47.889Z,97139.03
2023-08-07T00:34:14.309Z,97133.69
2023-08-07T00:36:40.667Z,97117.78
2023-08-07T00:39:07.027Z,97128.78
2023-08-07T00:41:33.404Z,97133.34
2023-08-07T00:43:59.790Z,97124.25
2023-08-07T00:46:27.650Z,97129.16
2023-08-07T00:48:54.136Z,97128.00
2023-08-07T00:51:21.231Z,97115.38
2023-08-07T00:53:47.992Z,97110.50
2023-08-07T00:56:14.543Z,97116.16
2023-08-07T00:58:41.099Z,97121.50
2023-08-07T01:01:07.596Z,97134.38
2023-08-07T01:03:34.058Z,97133.63
2023-08-07T01:06:00.661Z,97125.69
2023-08-07T01:08:27.609Z,97129.88
2023-08-07T01:11:15.348Z,97135.19
2023-08-07T01:13:50.318Z,97138.34
2023-08-07T01:16:23.284Z,97133.34
2023-08-07T01:18:50.226Z,97127.31
2023-08-07T01:21:20.330Z,97136.84
2023-08-07T01:23:49.890Z,97117.91
2023-08-07T01:26:19.612Z,97139.13
2023-08-07T01:29:07.685Z,97141.47
2023-08-07T01:31:35.134Z,97136.56
2023-08-07T01:34:05.886Z,97128.00
2023-08-07T01:36:33.019Z,97135.41
2023-08-07T01:39:00.779Z,97130.03
2023-08-07T01:41:27.252Z,97133.91
2023-08-07T01:43:55.739Z,97127.09
2023-08-07T01:46:22.189Z,97110.44
2023-08-07T01:48:48.610Z,97117.34
2023-08-07T01:51:15.086Z,97135.78
2023-08-07T01:53:41.469Z,97138.09
2023-08-07T01:56:07.845Z,97133.91
2023-08-07T01:58:34.215Z,97140.41
2023-08-07T02:01:00.586Z,97150.00
2023-08-07T02:03:27.523Z,97148.47
2023-08-07T02:05:53.925Z,97146.19
2023-08-07T02:08:20.570Z,97150.03
2023-08-07T02:10:46.970Z,97149.28
2023-08-07T02:13:13.349Z,97157.72
2023-08-07T02:15:39.703Z,97153.84
2023-08-07T02:18:06.083Z,97144.00
2023-08-07T02:20:32.467Z,97142.50
2023-08-07T02:22:58.910Z,97159.19
2023-08-07T02:25:25.265Z,97150.84
2023-08-07T02:27:51.643Z,97139.59
2023-08-07T02:30:18.042Z,97167.59
2023-08-07T02:32:44.501Z,97145.97
2023-08-07T02:35:11.703Z,97159.19
2023-08-07T02:37:38.139Z,97160.81
2023-08-07T02:40:04.981Z,97170.66
2023-08-07T02:42:31.359Z,97171.81
2023-08-07T02:44:57.726Z,97151.00
2023-08-07T02:47:24.122Z,97173.69
2023-08-07T02:49:50.539Z,97169.16
2023-08-07T02:52:16.900Z,97179.72
2023-08-07T02:54:43.299Z,97188.88
2023-08-07T02:57:11.249Z,97185.06
2023-08-07T02:59:37.625Z,97189.28
2023-08-07T03:02:04.184Z,97178.19
2023-08-07T03:04:30.570Z,97184.28
2023-08-07T03:06:57.220Z,97182.75
2023-08-07T03:09:23.844Z,97169.16
2023-08-07T03:11:50.224Z,97182.75
2023-08-07T03:14:16.694Z,97169.97
2023-08-07T03:16:43.122Z,97191.91
2023-08-07T03:19:09.544Z,97192.66
2023-08-07T03:21:35.922Z,97196.47
2023-08-07T03:24:02.299Z,97186.97
2023-08-07T03:26:28.678Z,97194.91
2023-08-07T03:28:55.068Z,97182.16
2023-08-07T03:31:21.481Z,97187.47
2023-08-07T03:33:47.947Z,97201.41
2023-08-07T03:36:14.338Z,97204.47
2023-08-07T03:38:40.733Z,97208.25
2023-08-07T03:41:07.107Z,97208.25
2023-08-07T03:43:33.530Z,97229.19
2023-08-07T03:46:03.040Z,97216.28
2023-08-07T03:48:30.195Z,97213.28
2023-08-07T03:51:03.663Z,97237.13
2023-08-07T03:53:30.038Z,97232.25
2023-08-07T03:55:56.425Z,97229.56
2023-08-07T03:58:22.814Z,97233.75
2023-08-07T04:00:49.289Z,97234.88
2023-08-07T04:03:15.741Z,97231.44
2023-08-07T04:05:42.211Z,97239.09
2023-08-07T04:08:08.603Z,97237.59
2023-08-07T04:10:34.992Z,97242.88
2023-08-07T04:13:01.363Z,97255.81
2023-08-07T04:15:27.790Z,97239.19
2023-08-07T04:17:54.214Z,97255.09
2023-08-07T04:20:20.606Z,97250.91
2023-08-07T04:22:47.098Z,97258.97
2023-08-07T04:25:13.649Z,97261.28
2023-08-07T04:27:40.009Z,97263.94
2023-08-07T04:30:07.232Z,97259.81
2023-08-07T04:32:33.638Z,97261.72
2023-08-07T04:35:00.066Z,97256.03
2023-08-07T04:37:26.484Z,97258.41
2023-08-07T04:39:52.858Z,97273.47
2023-08-07T04:42:19.235Z,97285.00
2023-08-07T04:44:45.614Z,97288.03
2023-08-07T04:47:11.999Z,97291.06
2023-08-07T04:49:38.402Z,97288.00
2023-08-07T04:52:16.631Z,97266.84
2023-08-07T04:54:51.010Z,97290.31
2023-08-07T04:57:17.398Z,97283.47
2023-08-07T04:59:43.779Z,97285.69
2023-08-07T05:02:10.166Z,97294.84
2023-08-07T05:04:36.684Z,97290.38
2023-08-07T05:07:03.071Z,97308.56
2023-08-07T05:09:29.441Z,97309.38
2023-08-07T05:11:56.014Z,97291.91
2023-08-07T05:14:22.597Z,97294.94
2023-08-07T05:16:49.144Z,97299.47
2023-08-07T05:19:15.537Z,97304.09
2023-08-07T05:21:41.928Z,97304.09
2023-08-07T05:24:08.306Z,97302.91
2023-08-07T05:26:34.768Z,97308.28
2023-08-07T05:29:01.135Z,97307.47
2023-08-07T05:31:29.634Z,97304.47
2023-08-07T05:33:56.233Z,97315.47
2023-08-07T05:36:22.646Z,97313.94
2023-08-07T05:38:49.028Z,97317.41
2023-08-07T05:41:15.393Z,97322.31
2023-08-07T05:43:41.837Z,97323.81
2023-08-07T05:46:08.280Z,97314.63
2023-08-07T05:48:34.848Z,97325.34
2023-08-07T05:51:01.234Z,97332.63
2023-08-07T05:53:27.638Z,97323.13
2023-08-07T05:55:54.079Z,97339.13
2023-08-07T05:58:20.477Z,97333.88
2023-08-07T06:00:46.985Z,97342.28
2023-08-07T06:03:13.386Z,97353.69
2023-08-07T06:05:39.789Z,97352.88
2023-08-07T06:08:06.264Z,97354.81
2023-08-07T06:10:32.675Z,97354.47
2023-08-07T06:12:59.118Z,97373.47
2023-08-07T06:15:25.493Z,97361.38
2023-08-07T06:17:51.937Z,97373.47
2023-08-07T06:20:18.456Z,97361.28
2023-08-07T06:22:45.580Z,97381.41
2023-08-07T06:25:12.054Z,97377.22
2023-08-07T06:27:38.466Z,97372.72
2023-08-07T06:30:05.259Z,97380.25
2023-08-07T06:32:33.096Z,97385.63
2023-08-07T06:34:59.509Z,97371.28
2023-08-07T06:37:25.894Z,97378.41
2023-08-07T06:39:52.381Z,97390.13
2023-08-07T06:42:18.754Z,97385.16
2023-08-07T06:44:45.181Z,97383.97
2023-08-07T06:47:11.587Z,97383.19
2023-08-07T06:49:38.023Z,97394.59
2023-08-07T06:52:04.944Z,97394.59
2023-08-07T06:54:31.301Z,97393.78
2023-08-07T06:56:57.693Z,97404.03
2023-08-07T06:59:24.083Z,97400.59
2023-08-07T07:01:50.527Z,97407.44
2023-08-07T07:04:16.932Z,97411.97
2023-08-07T07:06:43.308Z,97420.28
2023-08-07T07:09:09.852Z,97418.34
2023-08-07T07:11:36.250Z,97422.16
2023-08-07T07:14:02.718Z,97429.34
2023-08-07T07:16:31.078Z,97419.50
2023-08-07T07:18:57.704Z,97433.19
2023-08-07T07:21:25.082Z,97419.88
2023-08-07T07:23:51.454Z,97387.91
2023-08-07T07:26:17.843Z,97415.22
2023-08-07T07:28:44.226Z,97427.78
2023-08-07T07:31:10.635Z,97427.50
2023-08-07T07:33:38.195Z,97423.31
2023-08-07T07:36:06.286Z,97450.19
2023-08-07T07:38:32.658Z,97454.34
2023-08-07T07:40:59.016Z,97454.72
2023-08-07T07:43:25.396Z,97463.03
2023-08-07T07:45:51.826Z,97458.84
2023-08-07T07:48:18.216Z,97461.97
2023-08-07T07:50:44.635Z,97467.59
2023-08-07T07:53:11.090Z,97462.56
2023-08-07T07:55:37.601Z,97474.00
2023-08-07T07:58:03.999Z,97471.03
2023-08-07T08:00:30.477Z,97464.25
2023-08-07T08:02:56.884Z,97483.19
2023-08-07T08:05:23.398Z,97479.34
2023-08-07T08:07:49.842Z,97473.16
2023-08-07T08:10:16.393Z,97473.16
2023-08-07T08:12:42.793Z,97476.91
2023-08-07T08:15:09.580Z,97474.56
2023-08-07T08:17:36.009Z,97487.56
2023-08-07T08:20:02.469Z,97478.03
2023-08-07T08:22:28.840Z,97479.19
2023-08-07T08:24:55.213Z,97476.97
2023-08-07T08:27:21.587Z,97490.41
2023-08-07T08:29:47.967Z,97497.25
2023-08-07T08:32:14.364Z,97493.00
2023-08-07T08:34:40.791Z,97495.28
2023-08-07T08:37:07.257Z,97499.09
2023-08-07T08:39:33.713Z,97506.41
2023-08-07T08:42:00.392Z,97502.69
2023-08-07T08:44:27.302Z,97500.53
2023-08-07T08:46:54.042Z,97518.41
2023-08-07T08:49:36.562Z,97522.66
2023-08-07T08:52:03.759Z,97517.00
2023-08-07T08:54:30.219Z,97517.78
2023-08-07T08:56:58.360Z,97518.84
2023-08-07T08:59:25.005Z,97522.16
2023-08-07T09:01:52.252Z,97524.34
2023-08-07T09:04:19.526Z,97524.56
2023-08-07T09:06:46.603Z,97527.84
2023-08-07T09:09:14.555Z,97530.81
2023-08-07T09:11:46.664Z,97526.22
2023-08-07T09:14:17.047Z,97524.16
2023-08-07T09:16:45.576Z,97528.00
2023-08-07T09:19:11.949Z,97529.97
2023-08-07T09:21:38.343Z,97525.72
2023-08-07T09:24:04.795Z,97532.13
2023-08-07T09:26:33.441Z,97537.47
2023-08-07T09:28:59.847Z,97538.94
2023-08-07T09:31:26.817Z,97544.16
2023-08-07T09:33:53.674Z,97543.31
2023-08-07T09:36:20.073Z,97531.66
2023-08-07T09:38:52.596Z,97551.75
2023-08-07T09:41:19.675Z,97560.81
2023-08-07T09:43:46.052Z,97559.53
2023-08-07T09:46:12.494Z,97558.13
2023-08-07T09:48:45.074Z,97545.63
2023-08-07T09:51:11.857Z,97554.94
2023-08-07T09:53:38.427Z,97567.28
2023-08-07T09:56:05.002Z,97557.50
2023-08-07T09:58:31.658Z,97561.34
2023-08-07T10:01:01.504Z,97543.41
2023-08-07T10:03:28.223Z,97558.09
2023-08-07T10:05:55.456Z,97560.25
2023-08-07T10:08:22.914Z,97555.00
2023-08-07T10:10:49.333Z,97558.72
2023-08-07T10:13:17.335Z,97562.16
2023-08-07T10:15:45.372Z,97558.97
2023-08-07T10:18:11.823Z,97557.72
2023-08-07T10:20:39.094Z,97557.72
2023-08-07T10:23:08.378Z,97565.91
2023-08-07T10:25:35.863Z,97556.09
2023-08-07T10:28:02.961Z,97553.34
2023-08-07T10:30:30.431Z,97546.22
2023-08-07T10:32:58.566Z,97558.25
2023-08-07T10:35:31.075Z,97552.13
2023-08-07T10:38:07.523Z,97570.19
2023-08-07T10:40:33.908Z,97563.78
2023-08-07T10:43:13.505Z,97564.66
2023-08-07T10:45:39.949Z,97562.97
2023-08-07T10:48:07.240Z,97566.63
2023-08-07T10:50:34.229Z,97562.06
2023-08-07T10:53:03.968Z,97563.78
2023-08-07T10:55:46.560Z,97556.28
2023-08-07T10:58:34.662Z,97564.34
2023-08-07T11:01:22.810Z,97571.63
2023-08-07T11:03:59.767Z,97578.16
2023-08-07T11:06:30.663Z,97571.69
2023-08-07T11:08:57.200Z,97566.81
2023-08-07T11:11:23.772Z,97565.06
2023-08-07T11:13:50.284Z,97565.59
2023-08-07T11:16:16.870Z,97558.88
2023-08-07T11:18:43.724Z,97557.41
2023-08-07T11:21:11.010Z,97553.66
2023-08-07T11:23:38.426Z,97551.84
2023-08-07T11:26:04.914Z,97544.91
2023-08-07T11:28:31.283Z,97558.03
2023-08-07T11:30:58.131Z,97564.50
2023-08-07T11:33:25.184Z,97573.56
2023-08-07T11:35:52.454Z,97570.56
2023-08-07T11:38:39.392Z,97557.22
2023-08-07T11:41:07.346Z,97545.69
2023-08-07T11:43:37.736Z,97552.03
2023-08-07T11:46:08.768Z,97534.41
2023-08-07T11:48:37.190Z,97543.44
2023-08-07T11:51:04.080Z,97538.84
2023-08-07T11:53:32.277Z,97603.72
2023-08-07T11:56:02.178Z,97620.94
2023-08-07T11:58:35.749Z,97595.63
2023-08-07T12:01:31.481Z,97610.88
2023-08-07T12:04:09.833Z,97605.28
2023-08-07T12:06:36.762Z,97603.84
2023-08-07T12:09:03.838Z,97586.75
2023-08-07T12:11:31.005Z,97587.22
2023-08-07T12:13:57.435Z,97589.59
2023-08-07T12:16:23.869Z,97595.22
2023-08-07T12:18:52.216Z,97587.44
2023-08-07T12:21:21.347Z,97578.16
2023-08-07T12:23:47.782Z,97591.34
2023-08-07T12:26:14.350Z,97588.38
2023-08-07T12:28:40.719Z,97602.34
2023-08-07T12:31:07.261Z,97589.66
2023-08-07T12:33:34.078Z,97599.00
2023-08-07T12:36:01.229Z,97604.66
2023-08-07T12:38:27.715Z,97612.06
2023-08-07T12:40:54.226Z,97610.53
2023-08-07T12:43:20.900Z,97605.91
2023-08-07T12:48:16.894Z,97595.22
2023-08-07T12:50:43.338Z,97593.88
2023-08-07T12:53:09.751Z,97591.13
2023-08-07T12:55:36.147Z,97599.94
2023-08-07T12:58:02.567Z,97589.34
2023-08-07T13:00:29.150Z,97575.56
2023-08-07T13:02:55.740Z,97596.41
2023-08-07T13:05:22.895Z,97594.28
2023-08-07T13:07:49.556Z,97591.78
2023-08-07T13:10:17.156Z,97594.53
2023-08-07T13:12:45.528Z,97598.56
2023-08-07T13:15:16.377Z,97606.03
2023-08-07T13:17:44.186Z,97592.00
2023-08-07T13:20:12.072Z,97590.13
2023-08-07T13:22:39.386Z,97595.09
2023-08-07T13:25:06.302Z,97590.50
2023-08-07T13:27:33.435Z,97604.50
2023-08-07T13:29:59.827Z,97601.47
2023-08-07T13:32:29.282Z,97620.91
2023-08-07T13:34:55.685Z,97617.50
2023-08-07T13:37:22.286Z,97624.56
2023-08-07T13:39:48.660Z,97622.22
2023-08-07T13:42:15.091Z,97637.75
2023-08-07T13:44:41.483Z,97643.66
2023-08-07T13:47:07.891Z,97643.78
2023-08-07T13:49:35.206Z,97643.22
2023-08-07T13:52:01.698Z,97647.41
2023-08-07T13:54:28.198Z,97646.03
2023-08-07T13:56:54.593Z,97664.06
2023-08-07T13:59:20.984Z,97671.25
2023-08-07T14:01:47.410Z,97681.06
2023-08-07T14:04:13.833Z,97686.88
2023-08-07T14:06:40.477Z,97693.19
2023-08-07T14:09:08.652Z,97691.59
2023-08-07T14:11:37.688Z,97687.97
2023-08-07T14:14:05.253Z,97702.47
2023-08-07T14:16:32.040Z,97689.84
2023-08-07T14:19:01.495Z,97690.53
2023-08-07T14:21:30.087Z,97699.25
2023-08-07T14:23:56.875Z,97703.59
2023-08-07T14:26:23.512Z,97697.69
2023-08-07T14:28:51.940Z,97719.78
2023-08-07T14:31:23.631Z,97722.25
2023-08-07T14:33:50.736Z,97736.84
2023-08-07T14:36:18.500Z,97730.91
2023-08-07T14:38:47.138Z,97725.13
2023-08-07T14:41:16.698Z,97732.78
2023-08-07T14:43:45.686Z,97740.78
2023-08-07T14:46:12.456Z,97742.31
2023-08-07T14:48:39.172Z,97762.16
2023-08-07T14:51:05.906Z,97770.09
2023-08-07T14:53:38.683Z,97762.38
2023-08-07T14:56:05.429Z,97758.88
2023-08-07T14:58:33.673Z,97743.16
2023-08-07T15:01:05.314Z,97743.84
2023-08-07T15:03:31.941Z,97740.72
2023-08-07T15:05:58.366Z,97752.47
2023-08-07T15:08:24.913Z,97747.03
2023-08-07T15:10:52.995Z,97744.44
2023-08-07T15:13:19.378Z,97752.16
2023-08-07T15:15:45.817Z,97757.53
2023-08-07T15:18:12.210Z,97744.38
2023-08-07T15:20:38.634Z,97736.69
2023-08-07T15:23:05.055Z,97755.91
2023-08-07T15:25:32.570Z,97735.66
2023-08-07T15:27:58.970Z,97740.22
2023-08-07T15:30:27.793Z,97753.97
2023-08-07T15:32:54.496Z,97772.16
2023-08-07T15:35:21.024Z,97777.91
2023-08-07T15:37:48.456Z,97792.91
2023-08-07T15:40:14.841Z,97793.94
2023-08-07T15:42:41.235Z,97799.28
2023-08-07T15:45:08.456Z,97811.84
2023-08-07T15:47:34.943Z,97790.97
2023-08-07T15:50:01.492Z,97829.03
2023-08-07T15:52:27.998Z,97819.81
2023-08-07T15:54:54.384Z,97823.59
2023-08-07T15:57:20.845Z,97817.91
2023-08-07T15:59:47.243Z,97830.00
2023-08-07T16:02:14.062Z,97827.34
2023-08-07T16:04:40.506Z,97833.41
2023-08-07T16:07:06.885Z,97814.38
2023-08-07T16:09:33.265Z,97822.94
2023-08-07T16:11:59.797Z,97810.91
2023-08-07T16:14:26.175Z,97806.34
2023-08-07T16:16:53.352Z,97818.34
2023-08-07T16:19:19.982Z,97819.06
2023-08-07T16:21:47.631Z,97812.44
2023-08-07T16:24:14.020Z,97813.22
2023-08-07T16:26:41.553Z,97820.56
2023-08-07T16:29:10.803Z,97807.09
2023-08-07T16:31:37.206Z,97820.72
2023-08-07T16:34:03.602Z,97829.63
2023-08-07T16:36:31.101Z,97835.34
2023-08-07T16:38:57.460Z,97824.09
2023-08-07T16:41:23.905Z,97838.16
2023-08-07T16:43:50.479Z,97842.31
2023-08-07T16:46:16.920Z,97849.16
2023-08-07T16:48:43.846Z,97851.31
2023-08-07T16:51:15.680Z,97848.53
2023-08-07T16:53:43.259Z,97852.31
2023-08-07T16:56:10.537Z,97858.78
2023-08-07T16:58:37.064Z,97869.41
2023-08-07T17:01:03.461Z,97860.19
2023-08-07T17:03:29.960Z,97877.19
2023-08-07T17:05:56.388Z,97855.34
2023-08-07T17:08:23.138Z,97872.34
2023-08-07T17:10:49.585Z,97873.09
2023-08-07T17:13:16.235Z,97870.03
2023-08-07T17:15:42.712Z,97869.34
2023-08-07T17:18:09.261Z,97885.63
2023-08-07T17:20:35.671Z,97876.09
2023-08-07T17:23:02.057Z,97891.31
2023-08-07T17:25:28.413Z,97881.88
2023-08-07T17:27:54.921Z,97869.13
2023-08-07T17:30:21.320Z,97872.88
2023-08-07T17:32:47.730Z,97889.31
2023-08-07T17:35:14.150Z,97886.97
2023-08-07T17:37:40.526Z,97881.50
2023-08-07T17:40:07.274Z,97881.38
2023-08-07T17:42:33.677Z,97876.41
2023-08-07T17:45:00.123Z,97882.97
2023-08-07T17:47:26.567Z,97875.34
2023-08-07T17:49:52.997Z,97873.09
2023-08-07T17:52:19.642Z,97874.47
2023-08-07T17:54:46.033Z,97874.00
2023-08-07T17:57:12.447Z,97863.47
2023-08-07T17:59:38.823Z,97881.00
2023-08-07T18:02:05.247Z,97894.84
2023-08-07T18:04:31.657Z,97879.22
2023-08-07T18:06:58.191Z,97908.59
2023-08-07T18:09:24.825Z,97897.53
2023-08-07T18:11:51.262Z,97900.97
2023-08-07T18:14:17.652Z,97899.41
2023-08-07T18:16:44.152Z,97899.41
2023-08-07T18:19:10.537Z,97913.50
2023-08-07T18:21:36.901Z,97903.09
2023-08-07T18:24:03.405Z,97886.81
2023-08-07T18:26:29.790Z,97900.88
2023-08-07T18:28:56.309Z,97885.03
2023-08-07T18:31:22.840Z,97907.50
2023-08-07T18:33:49.238Z,97885.41
2023-08-07T18:36:15.723Z,97895.66
2023-08-07T18:38:42.125Z,97912.47
2023-08-07T18:41:08.489Z,97910.16
2023-08-07T18:43:34.876Z,97918.56
2023-08-07T18:46:01.271Z,97909.41
2023-08-07T18:48:27.698Z,97911.78
2023-08-07T18:50:54.073Z,97932.38
2023-08-07T18:53:20.468Z,97923.22
2023-08-07T18:55:46.877Z,97924.69
2023-08-07T18:58:13.263Z,97916.41
2023-08-07T19:00:39.700Z,97934.81
2023-08-07T19:03:06.165Z,97937.88
2023-08-07T19:05:32.606Z,97934.50
2023-08-07T19:07:58.999Z,97940.28
2023-08-07T19:10:25.389Z,97934.94
2023-08-07T19:12:51.820Z,97939.13
2023-08-07T19:15:18.225Z,97949.72
2023-08-07T19:17:44.758Z,97957.75
2023-08-07T19:20:12.486Z,97941.75
2023-08-07T19:22:38.926Z,97968.41
2023-08-07T19:25:05.733Z,97972.19
2023-08-07T19:27:32.133Z,97974.94
2023-08-07T19:29:58.543Z,97959.31
2023-08-07T19:32:25.100Z,97963.16
2023-08-07T19:34:51.516Z,97968.09
2023-08-07T19:37:17.867Z,97965.44
2023-08-07T19:39:44.336Z,97976.06
2023-08-07T19:42:10.708Z,97975.72
2023-08-07T19:44:37.175Z,97967.72
2023-08-07T19:47:03.815Z,97974.56
2023-08-07T19:49:30.187Z,97985.22
2023-08-07T19:51:56.592Z,97986.75
2023-08-07T19:54:22.982Z,97978.41
2023-08-07T19:56:49.371Z,97990.19
2023-08-07T19:59:15.819Z,97987.53
2023-08-07T20:01:42.226Z,97984.88
2023-08-07T20:04:08.769Z,97999.72
2023-08-07T20:06:35.180Z,98002.03
2023-08-07T20:09:01.546Z,97978.41
2023-08-07T20:11:28.036Z,98002.75
2023-08-07T20:13:54.470Z,98005.41
2023-08-07T20:16:20.889Z,97973.06
2023-08-07T20:18:47.356Z,97997.03
2023-08-07T20:21:15.732Z,97981.41
2023-08-07T20:23:43.070Z,97993.59
2023-08-07T20:26:09.466Z,97993.97
2023-08-07T20:28:35.876Z,97988.28
2023-08-07T20:31:02.293Z,97994.75
2023-08-07T20:33:28.737Z,97998.19
2023-08-07T20:35:55.120Z,98005.00
2023-08-07T20:38:21.520Z,98015.66
2023-08-07T20:40:47.921Z,98018.34
2023-08-07T20:43:14.377Z,98024.44
2023-08-07T20:45:40.781Z,98023.66
2023-08-07T20:48:07.348Z,98023.31
2023-08-07T20:50:34.550Z,98029.41
2023-08-07T20:53:00.908Z,98031.69
2023-08-07T20:55:27.286Z,98033.63
2023-08-07T20:57:53.655Z,98033.63
2023-08-07T21:00:20.116Z,98011.91
2023-08-07T21:02:46.532Z,98022.59
2023-08-07T21:05:13.049Z,98023.31
2023-08-07T21:07:39.535Z,98026.38
2023-08-07T21:10:06.459Z,98020.69
2023-08-07T21:12:32.831Z,98027.53
2023-08-07T21:14:59.232Z,98029.06
2023-08-07T21:17:25.603Z,98036.28
2023-08-07T21:19:51.978Z,98015.72
2023-08-07T21:22:18.360Z,98037.06
2023-08-07T21:24:44.744Z,98011.91
2023-08-07T21:27:11.119Z,98036.28
2023-08-07T21:29:37.594Z,98038.94
2023-08-07T21:32:04.269Z,98020.28
2023-08-07T21:34:30.700Z,98024.88
2023-08-07T21:36:57.087Z,98010.38
2023-08-07T21:39:23.513Z,98014.94
2023-08-07T21:41:50.987Z,98021.06
2023-08-07T21:44:17.390Z,98026.38
2023-08-07T21:46:43.924Z,98022.59
2023-08-07T21:49:11.112Z,98037.06
2023-08-07T21:51:38.567Z,98035.16
2023-08-07T21:54:04.957Z,98024.88
2023-08-07T21:56:31.362Z,98040.88
2023-08-07T21:58:57.770Z,98027.13
2023-08-07T22:01:24.198Z,98040.09
2023-08-07T22:03:50.735Z,98029.41
2023-08-07T22:06:17.175Z,98034.75
2023-08-07T22:08:43.727Z,98031.69
2023-08-07T22:11:10.134Z,98029.00
2023-08-07T22:13:36.524Z,98039.25
2023-08-07T22:16:02.997Z,98027.50
2023-08-07T22:18:29.420Z,98040.03
2023-08-07T22:20:55.794Z,98019.44
2023-08-07T22:23:22.161Z,98027.03
2023-08-07T22:25:48.540Z,98027.41
2023-08-07T22:28:14.905Z,98019.78
2023-08-07T22:30:41.333Z,98024.38
2023-08-07T22:33:07.807Z,98027.03
2023-08-07T22:35:34.228Z,98023.66
2023-08-07T22:38:00.607Z,98021.38
2023-08-07T22:40:27.018Z,98018.72
2023-08-07T22:42:53.414Z,98011.06
2023-08-07T22:45:19.889Z,98011.47
2023-08-07T22:47:47.079Z,98025.53
2023-08-07T22:50:13.605Z,98011.44
2023-08-07T22:52:40.036Z,98013.28
2023-08-07T22:55:06.748Z,98008.75
2023-08-07T22:57:33.109Z,97995.81
2023-08-07T22:59:59.495Z,98002.66
2023-08-07T23:02:25.911Z,97994.59
2023-08-07T23:04:52.342Z,98000.31
2023-08-07T23:07:18.721Z,97998.78
2023-08-07T23:09:45.095Z,98002.97
2023-08-07T23:12:11.479Z,98002.56
2023-08-07T23:14:37.849Z,98012.06
2023-08-07T23:17:04.460Z,97994.09
2023-08-07T23:19:31.545Z,98004.78
2023-08-07T23:21:58.340Z,98015.44
2023-08-07T23:24:24.866Z,97995.72
2023-08-07T23:26:51.251Z,98004.06
2023-08-07T23:29:17.613Z,97998.72
2023-08-07T23:31:44.025Z,97994.50
2023-08-07T23:34:10.417Z,97991.81
2023-08-07T23:36:37.326Z,97971.28
2023-08-07T23:39:03.858Z,97994.38
2023-08-07T23:41:30.252Z,98000.88
2023-08-07T23:43:56.622Z,97997.88
2023-08-07T23:46:23.051Z,97996.59
2023-08-07T23:48:49.602Z,98003.81
2023-08-07T23:51:15.986Z,97990.84
2023-08-07T23:53:43.672Z,98007.59
2023-08-07T23:56:10.096Z,97997.00
2023-08-07T23:58:36.497Z,98000.75
